• Join FlightAware (Why Join?)
  • Login
  • US Flag 
11:58AM EDT


 

Airport Tracker/Info


-or-


 

Live Flight TrackerFlight Track Log ✈ N277AG ✈ 26-Oct-2013 ✈ KDTN - KHQZ

Flight Track Log - Related Links

Times and Time Zones

All times are in EDT time to prevent confusion due to time zone crossing. See the N277AG flight status page for this flight to view local times or setup timezone preferences in your user account.

Time Position Orientation Groundspeed Altitude Reporting Facility
EDT Latitude Longitude Course Direction KTS MPH feet Rate Location/Type
12:02PM 32.5306 -93.7389 145° Southeast 133 153 700  Level Fort Worth Center
12:02PM 32.5197 -93.7300 145° Southeast 111 128 1,500 1,260 Climbing Fort Worth Center
12:03PM 32.4914 -93.7494 210° Southwest 118 136 2,700 1,080 Climbing Fort Worth Center
12:04PM 32.4889 -93.7536 235° Southwest 109 125 2,900 960 Climbing Fort Worth Center
12:05PM 32.4747 -93.7831 240° Southwest 124 143 3,700 960 Climbing Fort Worth Center
12:05PM 32.4775 -93.7931 288° West 122 140 3,900 840 Climbing Fort Worth Center
12:06PM 32.4792 -93.8247 274° West 130 150 4,600 720 Climbing Fort Worth Center
12:06PM 32.4806 -93.8353 279° West 129 148 4,700 660 Climbing Fort Worth Center
12:07PM 32.4753 -93.8669 259° West 131 151 5,300 840 Climbing Fort Worth Center
12:07PM 32.4783 -93.8783 288° West 130 150 5,600 660 Climbing Fort Worth Center
12:08PM 32.4800 -93.9111 273° West 133 153 6,000 480 Climbing Fort Worth Center
12:08PM 32.4794 -93.9256 267° West 133 153 6,100 480 Climbing Fort Worth Center
12:09PM 32.4761 -93.9533 262° West 142 163 6,500 240 Climbing Fort Worth Center
12:09PM 32.4764 -93.9717 271° West 137 158 6,400  Descending Fort Worth Center
12:09PM 32.4767 -94.0000 271° West 157 181 6,500  Climbing Fort Worth Center
12:10PM 32.4786 -94.0281 275° West 162 186 6,400 -120 Descending Fort Worth Center
12:10PM 32.4797 -94.0542 273° West 168 193 6,400  Level Fort Worth Center
12:11PM 32.4853 -94.0792 285° West 158 182 6,400  Level Fort Worth Center
12:11PM 32.4869 -94.1078 274° West 165 190 6,400  Level Fort Worth Center
12:12PM 32.4914 -94.1386 280° West 162 186 6,400  Level Fort Worth Center
12:13PM 32.4944 -94.1692 277° West 161 185 6,400  Level Fort Worth Center
12:13PM 32.4978 -94.1894 281° West 156 180 6,400 60 Level Fort Worth Center
12:14PM 32.5019 -94.2400 276° West 158 182 6,500  Climbing Fort Worth Center
12:15PM 32.5075 -94.2942 277° West 157 181 6,500 -60 Level Fort Worth Center
12:16PM 32.5144 -94.3500 278° West 164 189 6,400  Descending Fort Worth Center
12:17PM 32.5189 -94.4072 275° West 163 188 6,500  Climbing Fort Worth Center
12:18PM 32.5228 -94.4581 275° West 158 182 6,500  Level Fort Worth Center
12:19PM 32.5308 -94.5181 279° West 168 193 6,500  Level Fort Worth Center
12:20PM 32.5358 -94.5708 276° West 165 190 6,500  Level Fort Worth Center
12:21PM 32.5419 -94.6242 278° West 164 189 6,500  Level Fort Worth Center
12:22PM 32.5458 -94.6731 275° West 160 184 6,500  Level Fort Worth Center
12:23PM 32.5533 -94.7392 278° West 166 191 6,500  Level Fort Worth Center
12:24PM 32.5594 -94.7925 278° West 165 190 6,500  Level Fort Worth Center
12:25PM 32.5658 -94.8461 278° West 164 189 6,500  Level Fort Worth Center
12:26PM 32.5717 -94.9044 277° West 163 188 6,500  Level Fort Worth Center
12:28PM 32.5783 -94.9536 279° West 165 190 6,500  Level Fort Worth Center
12:29PM 32.5825 -95.0075 275° West 165 190 6,500  Level Fort Worth Center
12:30PM 32.5892 -95.0625 278° West 166 191 6,500  Level Fort Worth Center
12:31PM 32.5961 -95.1269 277° West 164 189 6,500  Level Fort Worth Center
12:32PM 32.6025 -95.1822 278° West 167 192 6,500  Level Fort Worth Center
12:33PM 32.6100 -95.2381 279° West 171 197 6,500 -60 Level Fort Worth Center
12:34PM 32.6164 -95.2931 278° West 169 194 6,400 -60 Descending Fort Worth Center
12:35PM 32.6236 -95.3536 278° West 168 193 6,400  Level Fort Worth Center
12:36PM 32.6300 -95.4081 278° West 167 192 6,400  Level Fort Worth Center
12:37PM 32.6372 -95.4625 279° West 168 193 6,400  Level Fort Worth Center
12:38PM 32.6425 -95.5161 277° West 165 190 6,400  Level Fort Worth Center
12:39PM 32.6508 -95.5756 279° West 166 191 6,400  Level Fort Worth Center
12:40PM 32.6586 -95.6347 279° West 165 190 6,400  Level Fort Worth Center
12:41PM 32.6642 -95.6889 277° West 166 191 6,400  Level Fort Worth Center
12:42PM 32.6719 -95.7461 279° West 164 189 6,400  Level Fort Worth Center
12:43PM 32.6783 -95.8000 278° West 165 190 6,400  Level Fort Worth Center
12:44PM 32.6833 -95.8550 276° West 167 192 6,400  Level Fort Worth Center
12:45PM 32.6903 -95.9125 278° West 164 189 6,400 -180 Level Fort Worth Center
12:46PM 32.6972 -95.9669 279° West 167 192 6,100 -480 Descending Fort Worth Center
12:47PM 32.7036 -96.0214 278° West 155 178 5,500 -600 Descending Fort Worth Center
12:48PM 32.7100 -96.0703 279° West 150 173 4,900 -660 Descending Fort Worth Center
12:49PM 32.7175 -96.1181 281° West 147 169 4,200 -660 Descending Fort Worth Center
12:50PM 32.7269 -96.1678 283° West 143 165 3,600 -420 Descending Fort Worth Center
12:51PM 32.7344 -96.2097 282° West 143 165 3,400 -240 Descending Fort Worth Center
12:53PM 32.7338 -96.2702 269° West  Level FlightAware Approximate
01:00PM 32.7333 -96.5167 270° West  Level FlightAware Approximate
01:01PM 32.7470 -96.5304 270° West  Level Estimated
01:02PM 32.7470 -96.5304 270° West  Level Estimated
01:03PM 32.7470 -96.5304 270° West  Level Estimated
01:04PM 32.7470 -96.5304 270° West  Level Estimated
01:05PM 32.7470 -96.5304 270° West  Level Estimated
01:06PM 32.7470 -96.5304 270° West  Level Estimated
01:07PM 32.7470 -96.5304 270° West  Level Estimated
01:08PM 32.7470 -96.5304 270° West  Level Estimated
01:09PM 32.7470 -96.5304 270° West  Level Estimated
01:10PM 32.7470 -96.5304 270° West  Level Estimated